Terminal Aerodrome Forecast
Issued by NWS

Home | Current Version | Previous Version | Text Only | Print | Product List | Glossary On
Versions: 1 2 3 4 5 6 7 8 9 10 11 12 13 14 15 16 17 18 19 20 21 22 23 24 25 26 27 28 29
026
FTAK31 PANC 192341
TAFAHO
TAF
PAHO 192341Z 2000/2024 04004KT 3SM -SN BR OVC020
      TEMPO 2000/2002 1SM -SN BR BKN008
     FM200200 03005KT 6SM -SN SCT020 OVC035
     FM200300 03007KT P6SM SCT035 BKN070
     FM200900 04009KT P6SM SCT070 BKN120=

USA.gov is the U.S. government's official web portal to all federal, state and local government web resources and services.